createdAt,value
2018-06-22T00:00:57.264Z,13.22
2018-06-22T00:01:57.296Z,13.19
2018-06-22T00:02:57.268Z,13.31
2018-06-22T00:03:57.268Z,13.16
2018-06-22T00:04:57.306Z,13.21
2018-06-22T00:05:57.759Z,13.14
2018-06-22T00:06:57.260Z,13.25
2018-06-22T00:07:58.315Z,12.95
2018-06-22T00:08:57.272Z,13.21
2018-06-22T00:09:57.295Z,13.25
2018-06-22T00:10:57.258Z,13.19
2018-06-22T00:11:57.322Z,13.03
2018-06-22T00:12:57.243Z,12.94
2018-06-22T00:13:57.243Z,12.98
2018-06-22T00:14:57.223Z,13.06
2018-06-22T00:15:58.877Z,13.04
2018-06-22T00:16:58.665Z,13.10
2018-06-22T00:17:58.299Z,12.92
2018-06-22T00:18:58.812Z,12.89
2018-06-22T00:19:58.811Z,12.95
2018-06-22T00:20:58.277Z,13.03
2018-06-22T00:21:58.353Z,13.10
2018-06-22T00:22:58.371Z,12.94
2018-06-22T00:23:58.724Z,12.87
2018-06-22T00:24:58.345Z,12.95
2018-06-22T00:25:59.152Z,12.76
2018-06-22T00:26:58.356Z,12.58
2018-06-22T00:27:58.733Z,12.76
2018-06-22T00:28:58.740Z,12.89
2018-06-22T00:29:58.617Z,13.03
2018-06-22T00:30:58.666Z,12.89
2018-06-22T00:32:01.320Z,12.79
2018-06-22T00:32:58.695Z,12.69
2018-06-22T00:33:58.884Z,12.73
2018-06-22T00:34:58.735Z,12.77
2018-06-22T00:35:59.169Z,12.69
2018-06-22T00:36:58.686Z,12.80
2018-06-22T00:37:58.701Z,12.70
2018-06-22T00:38:58.707Z,12.56
2018-06-22T00:39:58.689Z,12.51
2018-06-22T00:40:58.701Z,12.69
2018-06-22T00:41:58.299Z,12.66
2018-06-22T00:42:58.341Z,12.56
2018-06-22T00:43:58.804Z,12.58
2018-06-22T00:44:58.734Z,12.77
2018-06-22T00:45:57.157Z,12.81
2018-06-22T00:46:58.721Z,12.81
2018-06-22T00:47:58.698Z,12.95
2018-06-22T00:48:58.820Z,12.79
2018-06-22T00:49:58.797Z,12.69
2018-06-22T00:50:58.633Z,12.61
2018-06-22T00:51:58.728Z,12.62
2018-06-22T00:52:58.697Z,12.67
2018-06-22T00:53:58.689Z,12.81
2018-06-22T00:54:58.670Z,12.51
2018-06-22T00:55:58.697Z,12.67
2018-06-22T00:56:58.622Z,12.81
2018-06-22T00:57:58.668Z,12.59
2018-06-22T00:58:58.667Z,12.71
2018-06-22T00:59:58.674Z,12.74
2018-06-22T01:00:58.678Z,12.69
2018-06-22T01:01:58.702Z,12.69
2018-06-22T01:02:58.652Z,12.69
2018-06-22T01:03:58.818Z,12.80
2018-06-22T01:04:58.652Z,12.79
2018-06-22T01:05:58.916Z,12.79
2018-06-22T01:06:58.251Z,12.74
2018-06-22T01:07:58.679Z,12.80
2018-06-22T01:08:58.653Z,12.87
2018-06-22T01:09:58.649Z,12.88
2018-06-22T01:10:58.672Z,12.99
2018-06-22T01:11:58.858Z,12.66
2018-06-22T01:12:58.621Z,12.59
2018-06-22T01:13:58.557Z,12.71
2018-06-22T01:14:58.710Z,12.59
2018-06-22T01:15:58.821Z,12.67
2018-06-22T01:16:58.774Z,12.71
2018-06-22T01:17:58.726Z,12.71
2018-06-22T01:18:58.694Z,12.70
2018-06-22T01:19:58.661Z,12.70
2018-06-22T01:20:58.309Z,12.62
2018-06-22T01:21:58.724Z,12.54
2018-06-22T01:23:00.431Z,12.49
2018-06-22T01:23:58.664Z,12.63
2018-06-22T01:24:58.662Z,12.52
2018-06-22T01:25:58.671Z,12.61
2018-06-22T01:26:58.612Z,12.63
2018-06-22T01:27:58.695Z,12.63
2018-06-22T01:28:58.688Z,12.70
2018-06-22T01:29:58.685Z,12.69
2018-06-22T01:30:58.653Z,12.66
2018-06-22T01:31:58.136Z,12.69
2018-06-22T01:32:58.681Z,12.71
2018-06-22T01:33:58.694Z,12.77
2018-06-22T01:34:58.667Z,12.67
2018-06-22T01:35:58.634Z,12.61
2018-06-22T01:36:58.708Z,12.61
2018-06-22T01:37:58.677Z,12.69
2018-06-22T01:38:58.691Z,12.58
2018-06-22T01:39:59.168Z,12.70
2018-06-22T01:40:58.835Z,12.52
2018-06-22T01:41:58.641Z,12.55
2018-06-22T01:42:58.685Z,12.63
2018-06-22T01:43:58.678Z,12.71
2018-06-22T01:44:58.706Z,12.70
2018-06-22T01:45:58.712Z,12.67
2018-06-22T01:46:58.709Z,12.73
2018-06-22T01:47:58.732Z,12.77
2018-06-22T01:48:58.698Z,12.59
2018-06-22T01:49:58.744Z,12.58
2018-06-22T01:50:58.683Z,12.51
2018-06-22T01:51:58.773Z,12.71
2018-06-22T01:52:59.178Z,12.55
2018-06-22T01:53:58.662Z,12.44
2018-06-22T01:54:58.620Z,12.63
2018-06-22T01:55:58.896Z,12.62
2018-06-22T01:56:58.674Z,12.63
2018-06-22T01:57:58.619Z,12.69
2018-06-22T01:58:58.380Z,12.71
2018-06-22T02:00:00.467Z,12.66
2018-06-22T02:01:00.679Z,12.49
2018-06-22T02:01:58.652Z,12.69
2018-06-22T02:02:58.641Z,12.61
2018-06-22T02:03:58.677Z,12.54
2018-06-22T02:04:58.655Z,12.56
2018-06-22T02:05:58.857Z,12.70
2018-06-22T02:06:58.671Z,12.70
2018-06-22T02:07:58.699Z,12.87
2018-06-22T02:08:58.518Z,12.80
2018-06-22T02:09:58.506Z,12.69
2018-06-22T02:11:00.235Z,12.67
2018-06-22T02:11:58.520Z,12.73
2018-06-22T02:12:58.516Z,12.74
2018-06-22T02:14:00.418Z,12.63
2018-06-22T02:14:58.925Z,12.52
2018-06-22T02:15:58.545Z,12.55
2018-06-22T02:17:00.699Z,12.61
2018-06-22T02:18:00.220Z,12.54
2018-06-22T02:19:00.193Z,12.63
2018-06-22T02:20:00.217Z,12.44
2018-06-22T02:21:00.220Z,12.46
2018-06-22T02:21:58.351Z,12.37
2018-06-22T02:23:00.339Z,12.40
2018-06-22T02:23:58.893Z,12.37
2018-06-22T02:24:58.730Z,12.51
2018-06-22T02:25:58.240Z,12.51
2018-06-22T02:26:58.212Z,12.59
2018-06-22T02:27:57.982Z,12.61
2018-06-22T02:28:58.268Z,12.46
2018-06-22T02:29:58.302Z,12.61
2018-06-22T02:30:58.289Z,12.62
2018-06-22T02:31:58.297Z,12.49
2018-06-22T02:32:58.311Z,12.56
2018-06-22T02:33:58.968Z,12.41
2018-06-22T02:34:58.305Z,12.54
2018-06-22T02:36:00.703Z,12.52
2018-06-22T02:36:57.964Z,12.52
2018-06-22T02:37:58.313Z,12.58
2018-06-22T02:38:58.593Z,12.55
2018-06-22T02:39:58.513Z,12.44
2018-06-22T02:40:58.457Z,12.51
2018-06-22T02:41:58.707Z,12.51
2018-06-22T02:42:58.278Z,12.44
2018-06-22T02:43:58.306Z,12.55
2018-06-22T02:44:58.416Z,12.51
2018-06-22T02:45:58.317Z,12.59
2018-06-22T02:46:57.974Z,12.46
2018-06-22T02:47:58.338Z,12.46
2018-06-22T02:48:58.375Z,12.52
2018-06-22T02:50:00.122Z,12.51
2018-06-22T02:50:58.304Z,12.46
2018-06-22T02:51:58.355Z,12.51
2018-06-22T02:52:58.345Z,12.34
2018-06-22T02:53:58.264Z,12.56
2018-06-22T02:54:58.491Z,12.38
2018-06-22T02:55:58.286Z,12.48
2018-06-22T02:56:58.173Z,12.58
2018-06-22T02:57:58.193Z,12.58
2018-06-22T03:00:31.295Z,12.63
2018-06-22T03:01:31.813Z,12.41
2018-06-22T03:03:25.664Z,12.52
2018-06-22T03:04:26.161Z,12.51
2018-06-22T03:06:20.028Z,12.67
2018-06-22T03:07:20.207Z,12.74
2018-06-22T03:09:13.969Z,12.56
2018-06-22T03:10:14.378Z,12.49
2018-06-22T03:12:08.861Z,12.55
2018-06-22T03:13:09.004Z,12.70
2018-06-22T03:15:02.459Z,12.71
2018-06-22T03:16:02.762Z,12.58
2018-06-22T03:17:57.349Z,12.63
2018-06-22T03:18:59.611Z,12.70
2018-06-22T03:20:51.294Z,12.80
2018-06-22T03:21:53.784Z,12.63
2018-06-22T03:23:46.055Z,12.62
2018-06-22T03:24:46.664Z,12.63
2018-06-22T03:26:42.483Z,12.56
2018-06-22T03:27:40.820Z,12.63
2018-06-22T03:28:40.778Z,12.61
2018-06-22T03:29:40.811Z,12.69
2018-06-22T03:30:40.826Z,12.49
2018-06-22T03:31:40.823Z,12.54
2018-06-22T03:32:40.813Z,12.52
2018-06-22T03:33:40.821Z,12.69
2018-06-22T03:34:40.817Z,12.62
2018-06-22T03:35:40.826Z,12.63
2018-06-22T03:36:41.079Z,12.66
2018-06-22T03:37:41.506Z,12.74
2018-06-22T03:38:40.363Z,12.49
2018-06-22T03:39:40.723Z,12.52
2018-06-22T03:40:41.005Z,12.46
2018-06-22T03:41:40.834Z,12.62
2018-06-22T03:42:40.762Z,12.61
2018-06-22T03:43:41.060Z,12.48
2018-06-22T03:44:40.856Z,12.51
2018-06-22T03:45:40.853Z,12.63
2018-06-22T03:46:40.854Z,12.61
2018-06-22T03:47:40.832Z,12.62
2018-06-22T03:48:40.848Z,12.54
2018-06-22T03:49:41.476Z,12.61
2018-06-22T03:50:40.756Z,12.61
2018-06-22T03:51:40.821Z,12.54
2018-06-22T03:52:40.830Z,12.49
2018-06-22T03:53:40.842Z,12.52
2018-06-22T03:54:40.871Z,12.67
2018-06-22T03:55:40.890Z,12.48
2018-06-22T03:56:40.540Z,12.54
2018-06-22T03:57:40.857Z,12.56
2018-06-22T03:58:40.829Z,12.44
2018-06-22T03:59:40.840Z,12.41
2018-06-22T04:00:40.829Z,12.31
2018-06-22T04:01:40.825Z,12.36
2018-06-22T04:02:40.826Z,12.46
2018-06-22T04:03:40.858Z,12.36
2018-06-22T04:04:41.035Z,12.26
2018-06-22T04:05:41.037Z,12.22
2018-06-22T04:06:43.369Z,12.25
2018-06-22T04:07:40.203Z,12.25
2018-06-22T04:08:41.008Z,12.13
2018-06-22T04:09:40.845Z,12.25
2018-06-22T04:10:40.867Z,12.22
2018-06-22T04:11:41.494Z,12.16
2018-06-22T04:12:40.307Z,12.19
2018-06-22T04:13:40.824Z,12.16
2018-06-22T04:14:40.830Z,11.88
2018-06-22T04:15:40.873Z,12.08
2018-06-22T04:16:40.800Z,12.07
2018-06-22T04:17:40.869Z,12.19
2018-06-22T04:18:40.982Z,12.16
2018-06-22T04:19:40.588Z,12.29
2018-06-22T04:20:42.641Z,12.26
2018-06-22T04:21:41.080Z,12.22
2018-06-22T04:22:42.897Z,12.22
2018-06-22T04:23:40.314Z,12.29
2018-06-22T04:24:40.932Z,12.25
2018-06-22T04:25:40.515Z,12.23
2018-06-22T04:26:41.359Z,12.29
2018-06-22T04:27:40.828Z,12.31
2018-06-22T04:28:40.584Z,12.25
2018-06-22T04:29:41.440Z,12.29
2018-06-22T04:30:43.453Z,12.25
2018-06-22T04:31:40.214Z,12.26
2018-06-22T04:32:41.186Z,12.46
2018-06-22T04:33:41.339Z,12.38
2018-06-22T04:34:40.866Z,12.43
2018-06-22T04:35:41.338Z,12.49
2018-06-22T04:36:41.039Z,12.40
2018-06-22T04:37:40.676Z,12.37
2018-06-22T04:38:40.281Z,12.29
2018-06-22T04:39:40.216Z,12.31
2018-06-22T04:40:41.041Z,12.49
2018-06-22T04:41:40.832Z,12.56
2018-06-22T04:42:40.631Z,12.58
2018-06-22T04:43:40.704Z,12.51
2018-06-22T04:44:40.669Z,12.49
2018-06-22T04:45:42.399Z,12.41
2018-06-22T04:46:41.046Z,12.38
2018-06-22T04:47:40.663Z,12.54
2018-06-22T04:48:40.733Z,12.48
2018-06-22T04:49:41.039Z,12.49
2018-06-22T04:50:40.568Z,12.49
2018-06-22T04:51:41.065Z,12.41
2018-06-22T04:52:40.835Z,12.58
2018-06-22T04:53:41.061Z,12.44
2018-06-22T04:54:40.683Z,12.54
2018-06-22T04:55:40.783Z,12.41
2018-06-22T04:56:41.058Z,12.34
2018-06-22T04:57:41.065Z,12.46
2018-06-22T04:58:41.059Z,12.30
2018-06-22T04:59:41.058Z,12.31
2018-06-22T05:00:40.879Z,12.38
2018-06-22T05:01:40.925Z,12.29
2018-06-22T05:02:41.023Z,12.43
2018-06-22T05:03:40.264Z,12.52
2018-06-22T05:04:40.825Z,12.43
2018-06-22T05:05:40.466Z,12.33
2018-06-22T05:06:40.439Z,12.04
2018-06-22T05:07:40.511Z,12.11
2018-06-22T05:08:41.063Z,12.33
2018-06-22T05:09:40.590Z,12.23
2018-06-22T05:10:40.524Z,12.22
2018-06-22T05:11:42.340Z,12.22
2018-06-22T05:12:40.599Z,12.12
2018-06-22T05:13:40.544Z,12.11
2018-06-22T05:14:40.733Z,12.15
2018-06-22T05:15:40.993Z,12.22
2018-06-22T05:16:40.073Z,12.25
2018-06-22T05:17:40.746Z,12.04
2018-06-22T05:18:40.227Z,12.22
2018-06-22T05:19:40.792Z,12.25
2018-06-22T05:20:40.420Z,12.19
2018-06-22T05:21:40.481Z,12.18
2018-06-22T05:22:41.016Z,12.34
2018-06-22T05:23:40.500Z,12.23
2018-06-22T05:24:40.536Z,12.31
2018-06-22T05:25:40.822Z,12.25
2018-06-22T05:26:41.041Z,12.40
2018-06-22T05:27:41.283Z,12.15
2018-06-22T05:28:40.143Z,12.08
2018-06-22T05:29:40.990Z,12.31
2018-06-22T05:30:40.528Z,12.34
2018-06-22T05:31:41.654Z,12.18
2018-06-22T05:32:40.485Z,12.11
2018-06-22T05:33:40.612Z,12.15
2018-06-22T05:34:40.872Z,12.19
2018-06-22T05:35:40.527Z,12.21
2018-06-22T05:36:40.355Z,12.23
2018-06-22T05:37:40.948Z,12.04
2018-06-22T05:38:40.832Z,12.12
2018-06-22T05:39:40.539Z,12.12
2018-06-22T05:40:41.149Z,12.05
2018-06-22T05:41:42.666Z,12.13
2018-06-22T05:42:42.599Z,12.29
2018-06-22T05:43:40.552Z,12.48
2018-06-22T05:44:38.899Z,12.54
2018-06-22T05:46:41.028Z,12.46
2018-06-22T05:47:41.107Z,12.52
2018-06-22T05:48:40.878Z,12.56
2018-06-22T05:49:40.856Z,12.52
2018-06-22T05:50:42.232Z,12.37
2018-06-22T05:51:40.882Z,12.30
2018-06-22T05:52:40.936Z,12.37
2018-06-22T05:53:40.570Z,12.34
2018-06-22T05:54:40.367Z,12.30
2018-06-22T05:55:41.323Z,12.37
2018-06-22T05:56:40.626Z,12.56
2018-06-22T05:57:40.421Z,12.63
2018-06-22T05:58:40.735Z,12.51
2018-06-22T05:59:41.086Z,12.62
2018-06-22T06:00:40.580Z,12.58
2018-06-22T06:01:40.748Z,12.41
2018-06-22T06:02:39.940Z,12.51
2018-06-22T06:03:40.472Z,12.61
2018-06-22T06:04:40.555Z,12.51
2018-06-22T06:05:40.864Z,12.51
2018-06-22T06:06:40.930Z,12.51
2018-06-22T06:07:40.398Z,12.46
2018-06-22T06:08:40.855Z,12.38
2018-06-22T06:09:42.626Z,12.55
2018-06-22T06:10:41.002Z,12.77
2018-06-22T06:11:40.852Z,12.69
2018-06-22T06:12:40.424Z,12.73
2018-06-22T06:13:40.819Z,12.80
2018-06-22T06:14:40.997Z,12.81
2018-06-22T06:15:40.650Z,12.70
2018-06-22T06:16:40.903Z,12.70
2018-06-22T06:17:40.318Z,12.84
2018-06-22T06:18:40.993Z,12.71
2018-06-22T06:19:40.370Z,12.73
2018-06-22T06:20:40.609Z,12.62
2018-06-22T06:21:40.885Z,12.92
2018-06-22T06:22:40.364Z,12.95
2018-06-22T06:23:40.629Z,12.91
2018-06-22T06:24:40.627Z,12.92
2018-06-22T06:25:40.914Z,12.77
2018-06-22T06:26:42.086Z,13.06
2018-06-22T06:27:40.360Z,12.99
2018-06-22T06:28:40.613Z,13.16
2018-06-22T06:29:38.873Z,13.03
2018-06-22T06:32:13.032Z,13.29
2018-06-22T06:33:12.604Z,13.29
2018-06-22T06:35:05.835Z,13.14
2018-06-22T06:36:06.382Z,12.99
2018-06-22T06:38:00.629Z,13.09
2018-06-22T06:39:00.511Z,13.04
2018-06-22T06:40:54.712Z,12.99
2018-06-22T06:41:55.034Z,13.21
2018-06-22T06:43:50.220Z,13.25
2018-06-22T06:44:51.007Z,13.38
2018-06-22T06:46:44.039Z,13.50
2018-06-22T06:47:44.612Z,13.46
2018-06-22T06:49:38.919Z,13.41
2018-06-22T06:51:53.092Z,13.66
2018-06-22T06:52:53.535Z,13.63
2018-06-22T06:54:47.898Z,13.62
2018-06-22T06:55:47.727Z,13.31
2018-06-22T06:57:42.419Z,13.32
2018-06-22T06:58:41.938Z,13.38
2018-06-22T07:00:37.071Z,13.31
2018-06-22T07:01:36.388Z,13.48
2018-06-22T07:03:30.573Z,13.53
2018-06-22T07:04:31.724Z,13.31
2018-06-22T07:06:25.374Z,13.47
2018-06-22T07:07:24.818Z,13.44
2018-06-22T07:09:19.559Z,13.29
2018-06-22T07:10:19.594Z,13.35
2018-06-22T07:12:13.761Z,13.65
2018-06-22T07:13:13.722Z,13.91
2018-06-22T07:15:09.399Z,13.88
2018-06-22T07:16:08.202Z,13.65
2018-06-22T07:17:07.753Z,13.68
2018-06-22T07:18:08.385Z,13.79
2018-06-22T07:19:07.750Z,13.96
2018-06-22T07:20:08.396Z,14.08
2018-06-22T07:21:08.994Z,14.19
2018-06-22T07:22:07.372Z,14.01
2018-06-22T07:23:08.208Z,14.08
2018-06-22T07:24:07.865Z,13.98
2018-06-22T07:25:07.849Z,14.01
2018-06-22T07:26:07.894Z,13.87
2018-06-22T07:27:09.031Z,13.86
2018-06-22T07:28:07.301Z,13.99
2018-06-22T07:29:08.202Z,13.90
2018-06-22T07:30:08.383Z,13.98
2018-06-22T07:31:08.200Z,14.12
2018-06-22T07:32:08.249Z,14.20
2018-06-22T07:33:07.690Z,14.23
2018-06-22T07:34:07.721Z,14.35
2018-06-22T07:35:07.920Z,14.54
2018-06-22T07:36:08.201Z,14.46
2018-06-22T07:37:06.313Z,14.60
2018-06-22T07:38:08.498Z,14.78
2018-06-22T07:39:07.900Z,14.91
2018-06-22T07:40:08.238Z,14.79
2018-06-22T07:41:08.788Z,14.87
2018-06-22T07:42:07.780Z,14.82
2018-06-22T07:43:07.557Z,14.91
2018-06-22T07:44:07.949Z,14.93
2018-06-22T07:45:07.698Z,14.85
2018-06-22T07:46:07.964Z,15.11
2018-06-22T07:47:08.285Z,15.11
2018-06-22T07:48:08.323Z,15.20
2018-06-22T07:49:07.969Z,15.22
2018-06-22T07:50:07.613Z,15.16
2018-06-22T07:51:08.345Z,15.05
2018-06-22T07:52:08.315Z,14.95
2018-06-22T07:53:07.853Z,15.11
2018-06-22T07:54:08.319Z,14.93
2018-06-22T07:55:09.799Z,14.95
2018-06-22T07:56:07.954Z,14.86
2018-06-22T07:57:08.478Z,14.85
2018-06-22T07:58:08.356Z,14.90
2018-06-22T07:59:08.070Z,15.07
2018-06-22T08:00:07.919Z,15.09
2018-06-22T08:01:08.030Z,15.13
2018-06-22T08:02:06.467Z,15.13
2018-06-22T08:03:08.218Z,15.33
2018-06-22T08:04:07.846Z,15.37
2018-06-22T08:05:07.873Z,15.22
2018-06-22T08:06:08.415Z,15.34
2018-06-22T08:07:08.224Z,15.19
2018-06-22T08:08:07.783Z,15.20
2018-06-22T08:09:08.374Z,15.25
2018-06-22T08:10:07.742Z,15.18
2018-06-22T08:11:08.426Z,15.20
2018-06-22T08:12:08.423Z,15.31
2018-06-22T08:13:07.860Z,15.30
2018-06-22T08:14:08.263Z,15.20
2018-06-22T08:15:07.952Z,15.30
2018-06-22T08:16:08.114Z,15.30
2018-06-22T08:17:06.080Z,15.33
2018-06-22T08:18:08.073Z,15.23
2018-06-22T08:19:07.955Z,15.35
2018-06-22T08:20:10.248Z,15.33
2018-06-22T08:21:07.862Z,15.40
2018-06-22T08:22:08.205Z,15.59
2018-06-22T08:23:07.710Z,15.71
2018-06-22T08:24:08.221Z,15.77
2018-06-22T08:25:07.932Z,15.91
2018-06-22T08:26:07.879Z,15.73
2018-06-22T08:27:07.927Z,15.76
2018-06-22T08:28:08.409Z,15.58
2018-06-22T08:29:07.722Z,15.56
2018-06-22T08:30:08.077Z,15.77
2018-06-22T08:31:08.183Z,15.86
2018-06-22T08:32:08.685Z,15.74
2018-06-22T08:33:07.682Z,15.52
2018-06-22T08:34:08.330Z,15.41
2018-06-22T08:35:07.871Z,15.35
2018-06-22T08:36:07.933Z,15.33
2018-06-22T08:37:08.248Z,15.30
2018-06-22T08:38:06.387Z,15.34
2018-06-22T08:39:08.476Z,15.34
2018-06-22T08:40:07.861Z,15.46
2018-06-22T08:41:07.880Z,15.27
2018-06-22T08:42:07.987Z,15.25
2018-06-22T08:43:07.967Z,15.23
2018-06-22T08:44:07.871Z,15.25
2018-06-22T08:45:07.734Z,15.25
2018-06-22T08:46:08.428Z,15.46
2018-06-22T08:47:06.104Z,15.31
2018-06-22T08:48:08.317Z,15.28
2018-06-22T08:49:07.904Z,15.40
2018-06-22T08:50:07.877Z,15.48
2018-06-22T08:51:07.934Z,15.58
2018-06-22T08:52:07.867Z,15.85
2018-06-22T08:53:08.386Z,15.95
2018-06-22T08:54:08.431Z,16.06
2018-06-22T08:55:07.931Z,16.44
2018-06-22T08:56:07.978Z,16.55
2018-06-22T08:57:08.220Z,16.54
2018-06-22T08:58:07.871Z,16.59
2018-06-22T08:59:07.930Z,16.44
2018-06-22T09:00:08.223Z,16.25
2018-06-22T09:01:08.314Z,16.29
2018-06-22T09:02:07.888Z,16.45
2018-06-22T09:03:07.952Z,16.55
2018-06-22T09:04:08.331Z,16.60
2018-06-22T09:05:09.700Z,16.70
2018-06-22T09:06:08.219Z,16.69
2018-06-22T09:07:08.810Z,16.75
2018-06-22T09:08:07.711Z,16.95
2018-06-22T09:09:07.103Z,16.63
2018-06-22T09:10:06.140Z,16.33
2018-06-22T09:11:07.960Z,16.30
2018-06-22T09:12:10.244Z,16.25
2018-06-22T09:13:07.446Z,16.60
2018-06-22T09:14:08.015Z,16.67
2018-06-22T09:15:08.233Z,16.57
2018-06-22T09:16:07.980Z,16.42
2018-06-22T09:17:06.152Z,16.17
2018-06-22T09:18:08.028Z,16.47
2018-06-22T09:19:08.280Z,16.55
2018-06-22T09:20:08.460Z,16.48
2018-06-22T09:21:08.253Z,16.72
2018-06-22T09:22:07.702Z,16.47
2018-06-22T09:23:08.016Z,16.37
2018-06-22T09:24:08.282Z,16.69
2018-06-22T09:25:07.100Z,16.54
2018-06-22T09:26:07.988Z,16.67
2018-06-22T09:27:07.946Z,16.77
2018-06-22T09:28:07.975Z,16.52
2018-06-22T09:29:07.950Z,16.60
2018-06-22T09:30:07.883Z,16.62
2018-06-22T09:31:08.035Z,16.36
2018-06-22T09:32:08.431Z,16.10
2018-06-22T09:33:07.992Z,16.01
2018-06-22T09:34:08.240Z,15.98
2018-06-22T09:35:08.218Z,15.85
2018-06-22T09:36:08.282Z,15.73
2018-06-22T09:37:08.285Z,15.76
2018-06-22T09:38:07.740Z,15.56
2018-06-22T09:39:09.549Z,15.46
2018-06-22T09:40:08.912Z,15.25
2018-06-22T09:41:07.944Z,15.37
2018-06-22T09:42:09.349Z,15.27
2018-06-22T09:43:10.244Z,15.22
2018-06-22T09:44:07.980Z,15.38
2018-06-22T09:45:07.449Z,15.52
2018-06-22T09:46:09.833Z,15.60
2018-06-22T09:47:07.052Z,15.73
2018-06-22T09:48:07.946Z,15.71
2018-06-22T09:49:08.274Z,15.78
2018-06-22T09:50:07.437Z,15.78
2018-06-22T09:51:08.407Z,15.81
2018-06-22T09:52:07.453Z,15.77
2018-06-22T09:53:08.509Z,16.06
2018-06-22T09:54:08.390Z,15.99
2018-06-22T09:55:07.746Z,15.88
2018-06-22T09:56:07.716Z,15.88
2018-06-22T09:57:08.236Z,15.95
2018-06-22T09:58:08.452Z,16.06
2018-06-22T09:59:08.239Z,16.04
2018-06-22T10:00:08.780Z,16.04
2018-06-22T10:01:08.250Z,15.89
2018-06-22T10:02:08.018Z,15.77
2018-06-22T10:03:10.001Z,15.91
2018-06-22T10:04:06.036Z,16.01
2018-06-22T10:05:08.296Z,16.23
2018-06-22T10:06:08.290Z,16.32
2018-06-22T10:07:08.151Z,16.18
2018-06-22T10:08:06.687Z,16.34
2018-06-22T10:09:07.789Z,16.26
2018-06-22T10:10:08.106Z,16.34
2018-06-22T10:11:07.985Z,16.57
2018-06-22T10:12:08.446Z,16.60
2018-06-22T10:13:08.243Z,16.50
2018-06-22T10:14:07.832Z,16.55
2018-06-22T10:15:08.290Z,16.78
2018-06-22T10:16:08.361Z,16.75
2018-06-22T10:17:08.399Z,16.84
2018-06-22T10:18:08.251Z,16.85
2018-06-22T10:19:07.994Z,16.91
2018-06-22T10:20:08.394Z,17.12
2018-06-22T10:21:07.724Z,17.14
2018-06-22T10:22:07.949Z,17.00
2018-06-22T10:23:09.894Z,16.88
2018-06-22T10:24:07.274Z,16.92
2018-06-22T10:25:08.642Z,16.51
2018-06-22T10:26:07.628Z,16.42
2018-06-22T10:27:07.839Z,16.37
2018-06-22T10:28:07.978Z,16.51
2018-06-22T10:29:07.140Z,16.27
2018-06-22T10:30:07.921Z,16.25
2018-06-22T10:31:07.565Z,15.99
2018-06-22T10:32:09.324Z,16.08
2018-06-22T10:33:09.768Z,16.26
2018-06-22T10:34:09.521Z,16.45
2018-06-22T10:35:08.700Z,16.60
2018-06-22T10:36:07.443Z,16.57
2018-06-22T10:37:07.955Z,16.77
2018-06-22T10:38:09.460Z,16.81
2018-06-22T10:39:07.415Z,17.00
2018-06-22T10:40:07.933Z,16.88
2018-06-22T10:41:07.906Z,16.78
2018-06-22T10:42:09.500Z,16.72
2018-06-22T10:43:08.159Z,16.67
2018-06-22T10:44:09.345Z,16.82
2018-06-22T10:45:07.848Z,16.59
2018-06-22T10:46:07.547Z,16.60
2018-06-22T10:47:07.953Z,16.65
2018-06-22T10:48:07.967Z,16.63
2018-06-22T10:49:07.633Z,16.72
2018-06-22T10:50:09.087Z,16.81
2018-06-22T10:51:08.018Z,16.80
2018-06-22T10:52:07.764Z,16.78
2018-06-22T10:53:07.452Z,16.80
2018-06-22T10:54:11.613Z,16.92
2018-06-22T10:55:10.204Z,16.91
2018-06-22T10:56:09.344Z,17.06
2018-06-22T10:57:08.284Z,17.07
2018-06-22T10:58:09.881Z,17.03
2018-06-22T10:59:07.932Z,17.05
2018-06-22T11:00:08.207Z,17.17
2018-06-22T11:01:09.292Z,17.15
2018-06-22T11:02:07.869Z,17.12
2018-06-22T11:03:08.077Z,17.05
2018-06-22T11:04:07.867Z,17.21
2018-06-22T11:05:09.798Z,17.21
2018-06-22T11:06:07.990Z,17.30
2018-06-22T11:07:06.044Z,17.42
2018-06-22T11:08:08.151Z,17.70
2018-06-22T11:09:07.812Z,17.77
2018-06-22T11:10:08.838Z,17.76
2018-06-22T11:11:07.654Z,18.21
2018-06-22T11:12:07.442Z,18.41
2018-06-22T11:13:06.607Z,18.57
2018-06-22T11:14:09.750Z,18.39
2018-06-22T11:15:07.751Z,18.05
2018-06-22T11:16:09.770Z,18.20
2018-06-22T11:17:07.938Z,18.28
2018-06-22T11:18:07.496Z,18.31
2018-06-22T11:19:07.268Z,18.26
2018-06-22T11:20:08.190Z,18.20
2018-06-22T11:21:09.910Z,18.46
2018-06-22T11:22:09.781Z,18.47
2018-06-22T11:23:08.087Z,18.49
2018-06-22T11:24:07.972Z,18.62
2018-06-22T11:25:09.481Z,18.53
2018-06-22T11:26:07.971Z,18.56
2018-06-22T11:27:08.884Z,18.46
2018-06-22T11:28:07.632Z,18.56
2018-06-22T11:29:07.867Z,18.50
2018-06-22T11:30:07.981Z,18.78
2018-06-22T11:31:08.003Z,18.76
2018-06-22T11:32:07.961Z,18.75
2018-06-22T11:33:08.253Z,18.86
2018-06-22T11:34:07.177Z,18.72
2018-06-22T11:35:07.926Z,18.74
2018-06-22T11:36:07.982Z,18.56
2018-06-22T11:37:07.700Z,18.39
2018-06-22T11:38:08.004Z,18.49
2018-06-22T11:39:08.982Z,18.29
2018-06-22T11:40:07.987Z,18.39
2018-06-22T11:41:07.996Z,18.46
2018-06-22T11:42:07.534Z,18.41
2018-06-22T11:43:09.550Z,18.28
2018-06-22T11:44:07.435Z,17.94
2018-06-22T11:45:07.968Z,18.19
2018-06-22T11:46:07.759Z,18.38
2018-06-22T11:47:09.099Z,18.65
2018-06-22T11:48:07.979Z,18.87
2018-06-22T11:49:09.820Z,18.96
2018-06-22T11:50:07.891Z,19.09
2018-06-22T11:51:07.946Z,19.32
2018-06-22T11:52:08.795Z,19.47
2018-06-22T11:53:28.313Z,19.40
2018-06-22T11:54:07.850Z,19.15
2018-06-22T11:55:08.370Z,18.74
2018-06-22T11:56:09.774Z,18.76
2018-06-22T11:57:09.799Z,18.91
2018-06-22T11:58:08.457Z,18.97
2018-06-22T11:59:07.719Z,19.05
2018-06-22T12:00:09.824Z,19.15
2018-06-22T12:01:08.310Z,18.87
2018-06-22T12:02:07.952Z,18.50
2018-06-22T12:03:07.932Z,18.53
2018-06-22T12:04:07.974Z,18.69
2018-06-22T12:05:08.004Z,18.83
2018-06-22T12:06:10.110Z,18.94
2018-06-22T12:07:08.032Z,19.09
2018-06-22T12:08:08.268Z,19.07
2018-06-22T12:09:08.914Z,18.78
2018-06-22T12:10:07.938Z,18.68
2018-06-22T12:11:07.535Z,18.49
2018-06-22T12:12:08.271Z,18.72
2018-06-22T12:13:08.560Z,18.74
2018-06-22T12:14:08.300Z,19.07
2018-06-22T12:15:08.333Z,19.31
2018-06-22T12:16:08.295Z,19.46
2018-06-22T12:17:08.443Z,19.50
2018-06-22T12:18:08.045Z,19.27
2018-06-22T12:19:08.319Z,19.10
2018-06-22T12:20:07.741Z,19.20
2018-06-22T12:21:08.287Z,19.20
2018-06-22T12:22:08.116Z,19.46
2018-06-22T12:23:07.487Z,19.13
2018-06-22T12:24:08.336Z,19.16
2018-06-22T12:25:08.294Z,18.96
2018-06-22T12:26:08.298Z,18.93
2018-06-22T12:27:08.203Z,19.12
2018-06-22T12:28:08.425Z,19.25
2018-06-22T12:29:09.758Z,19.52
2018-06-22T12:30:08.311Z,19.62
2018-06-22T12:31:07.948Z,19.50
2018-06-22T12:32:08.300Z,19.46
2018-06-22T12:33:08.322Z,19.50
2018-06-22T12:34:08.307Z,19.82
2018-06-22T12:35:08.393Z,19.82
2018-06-22T12:36:07.785Z,19.89
2018-06-22T12:37:08.048Z,20.34
2018-06-22T12:38:08.416Z,20.58
2018-06-22T12:39:07.498Z,20.53
2018-06-22T12:40:08.454Z,20.50
2018-06-22T12:41:08.300Z,20.20
2018-06-22T12:42:08.306Z,19.83
2018-06-22T12:43:08.440Z,19.38
2018-06-22T12:44:08.043Z,18.96
2018-06-22T12:45:08.303Z,18.91
2018-06-22T12:46:08.464Z,18.91
2018-06-22T12:47:07.999Z,18.60
2018-06-22T12:48:08.084Z,18.17
2018-06-22T12:49:07.967Z,17.92
2018-06-22T12:50:08.305Z,17.76
2018-06-22T12:51:07.793Z,17.42
2018-06-22T12:52:08.313Z,17.57
2018-06-22T12:53:08.312Z,17.42
2018-06-22T12:54:08.382Z,17.74
2018-06-22T12:55:08.060Z,17.94
2018-06-22T12:56:07.978Z,17.63
2018-06-22T12:57:08.451Z,17.84
2018-06-22T12:58:08.792Z,17.86
2018-06-22T12:59:08.260Z,18.09
2018-06-22T13:00:08.069Z,18.28
2018-06-22T13:01:10.051Z,18.50
2018-06-22T13:02:08.237Z,18.72
2018-06-22T13:03:07.526Z,18.66
2018-06-22T13:04:07.337Z,18.71
2018-06-22T13:05:08.759Z,19.39
2018-06-22T13:06:08.473Z,20.04
2018-06-22T13:07:08.218Z,20.08
2018-06-22T13:08:07.803Z,20.51
2018-06-22T13:09:08.302Z,20.75
2018-06-22T13:10:08.043Z,20.16
2018-06-22T13:11:07.979Z,20.12
2018-06-22T13:12:08.059Z,19.82
2018-06-22T13:13:07.831Z,19.70
2018-06-22T13:14:08.030Z,19.55
2018-06-22T13:15:07.595Z,19.58
2018-06-22T13:16:08.016Z,19.70
2018-06-22T13:17:08.393Z,19.67
2018-06-22T13:18:07.326Z,20.16
2018-06-22T13:19:08.371Z,20.12